createdAt,value
2023-02-13T00:00:20.320Z,9.60
2023-02-13T00:02:21.988Z,9.60
2023-02-13T00:04:23.646Z,9.60
2023-02-13T00:06:25.436Z,9.50
2023-02-13T00:08:27.167Z,9.60
2023-02-13T00:10:28.850Z,9.50
2023-02-13T00:12:30.537Z,9.50
2023-02-13T00:14:34.935Z,9.50
2023-02-13T00:16:36.605Z,9.50
2023-02-13T00:18:38.703Z,9.50
2023-02-13T00:20:40.353Z,9.50
2023-02-13T00:22:42.021Z,9.50
2023-02-13T00:24:43.790Z,9.50
2023-02-13T00:26:45.540Z,9.50
2023-02-13T00:28:47.461Z,9.50
2023-02-13T00:30:49.254Z,9.50
2023-02-13T00:32:50.969Z,9.50
2023-02-13T00:34:52.632Z,9.50
2023-02-13T00:36:54.452Z,9.40
2023-02-13T00:38:56.507Z,9.50
2023-02-13T00:40:58.460Z,9.40
2023-02-13T00:43:00.280Z,9.40
2023-02-13T00:45:01.949Z,9.40
2023-02-13T00:47:04.942Z,9.40
2023-02-13T00:49:06.535Z,9.40
2023-02-13T00:51:09.421Z,9.40
2023-02-13T00:53:11.029Z,9.30
2023-02-13T00:55:12.774Z,9.40
2023-02-13T00:57:14.457Z,9.30
2023-02-13T00:59:18.026Z,9.30
2023-02-13T01:01:19.703Z,9.30
2023-02-13T01:03:21.924Z,9.30
2023-02-13T01:05:23.609Z,9.30
2023-02-13T01:07:25.323Z,9.30
2023-02-13T01:09:27.076Z,9.30
2023-02-13T01:11:28.717Z,9.30
2023-02-13T01:13:30.351Z,9.20
2023-02-13T01:15:32.659Z,9.20
2023-02-13T01:17:34.318Z,9.20
2023-02-13T01:19:35.940Z,9.20
2023-02-13T01:21:37.626Z,9.20
2023-02-13T01:23:39.392Z,9.20
2023-02-13T01:25:41.733Z,9.20
2023-02-13T01:27:43.456Z,9.20
2023-02-13T01:29:45.110Z,9.20
2023-02-13T01:31:46.863Z,9.20
2023-02-13T01:33:48.591Z,9.20
2023-02-13T01:35:50.380Z,9.20
2023-02-13T01:37:52.086Z,9.20
2023-02-13T01:39:54.608Z,9.20
2023-02-13T01:41:56.244Z,9.20
2023-02-13T01:43:59.369Z,9.10
2023-02-13T01:46:01.817Z,9.10
2023-02-13T01:48:06.006Z,9.10
2023-02-13T01:50:10.763Z,9.10
2023-02-13T01:52:13.037Z,9.10
2023-02-13T01:54:30.876Z,9.10
2023-02-13T01:56:38.876Z,9.10
2023-02-13T01:58:42.502Z,9.10
2023-02-13T02:00:49.632Z,9.10
2023-02-13T02:02:53.235Z,9.10
2023-02-13T02:04:58.670Z,9.10
2023-02-13T02:07:03.412Z,9.00
2023-02-13T02:09:12.300Z,9.00
2023-02-13T02:11:28.611Z,9.00
2023-02-13T02:13:30.301Z,9.00
2023-02-13T02:15:38.098Z,9.00
2023-02-13T02:17:39.843Z,9.00
2023-02-13T02:19:44.421Z,9.00
2023-02-13T02:22:07.950Z,9.00
2023-02-13T02:24:29.399Z,9.00
2023-02-13T02:26:31.038Z,9.00
2023-02-13T02:28:50.640Z,9.00
2023-02-13T02:31:12.341Z,8.90
2023-02-13T02:33:30.803Z,9.00
2023-02-13T02:35:40.181Z,9.00
2023-02-13T02:37:48.681Z,8.90
2023-02-13T02:39:59.449Z,8.90
2023-02-13T02:42:01.166Z,8.90
2023-02-13T02:44:15.570Z,8.90
2023-02-13T02:46:34.642Z,8.90
2023-02-13T02:49:07.248Z,8.90
2023-02-13T02:51:11.164Z,8.90
2023-02-13T02:53:21.846Z,8.80
2023-02-13T02:56:01.892Z,8.90
2023-02-13T02:58:28.116Z,8.90
2023-02-13T03:00:52.445Z,8.80
2023-02-13T03:03:12.980Z,8.80
2023-02-13T03:05:59.347Z,8.80
2023-02-13T03:08:02.240Z,8.80
2023-02-13T03:10:24.848Z,8.80
2023-02-13T03:12:48.862Z,8.80
2023-02-13T03:14:50.522Z,8.80
2023-02-13T03:17:11.280Z,8.70
2023-02-13T03:19:41.503Z,8.70
2023-02-13T03:22:06.840Z,8.70
2023-02-13T03:24:20.019Z,8.70
2023-02-13T03:26:50.449Z,8.70
2023-02-13T03:29:15.045Z,8.70
2023-02-13T03:31:35.246Z,8.70
2023-02-13T03:33:42.956Z,8.70
2023-02-13T03:36:20.387Z,8.60
2023-02-13T03:38:40.455Z,8.60
2023-02-13T03:41:20.592Z,8.60
2023-02-13T03:43:22.998Z,8.60
2023-02-13T03:45:47.460Z,8.60
2023-02-13T03:47:50.954Z,8.60
2023-02-13T03:50:09.014Z,8.60
2023-02-13T03:52:37.081Z,8.60
2023-02-13T03:55:01.417Z,8.60
2023-02-13T03:57:21.553Z,8.60
2023-02-13T03:59:25.708Z,8.60
2023-02-13T04:01:28.795Z,8.60
2023-02-13T04:03:33.220Z,8.60
2023-02-13T04:05:38.982Z,8.60
2023-02-13T04:07:40.644Z,8.60
2023-02-13T04:09:42.695Z,8.60
2023-02-13T04:12:03.169Z,8.60
2023-02-13T04:14:08.502Z,8.60
2023-02-13T04:16:11.506Z,8.60
2023-02-13T04:18:22.278Z,8.60
2023-02-13T04:20:26.814Z,8.60
2023-02-13T04:22:28.438Z,8.60
2023-02-13T04:24:30.160Z,8.60
2023-02-13T04:26:42.712Z,8.60
2023-02-13T04:28:44.329Z,8.60
2023-02-13T04:30:46.177Z,8.60
2023-02-13T04:32:47.894Z,8.60
2023-02-13T04:34:49.557Z,8.60
2023-02-13T04:36:51.219Z,8.60
2023-02-13T04:38:52.988Z,8.60
2023-02-13T04:40:54.625Z,8.50
2023-02-13T04:42:56.342Z,8.60
2023-02-13T04:44:57.977Z,8.60
2023-02-13T04:46:59.616Z,8.60
2023-02-13T04:49:01.427Z,8.60
2023-02-13T04:51:03.230Z,8.60
2023-02-13T04:53:04.859Z,8.50
2023-02-13T04:55:06.584Z,8.60
2023-02-13T04:57:08.196Z,8.60
2023-02-13T04:59:09.832Z,8.50
2023-02-13T05:01:14.946Z,8.50
2023-02-13T05:03:16.575Z,8.50
2023-02-13T05:05:18.607Z,8.60
2023-02-13T05:07:20.267Z,8.60
2023-02-13T05:09:21.931Z,8.50
2023-02-13T05:11:23.592Z,8.50
2023-02-13T05:13:25.241Z,8.50
2023-02-13T05:15:26.975Z,8.50
2023-02-13T05:17:28.620Z,8.50
2023-02-13T05:19:30.231Z,8.50
2023-02-13T05:21:50.707Z,8.50
2023-02-13T05:23:52.379Z,8.50
2023-02-13T05:25:54.093Z,8.50
2023-02-13T05:27:55.738Z,8.50
2023-02-13T05:29:57.336Z,8.50
2023-02-13T05:31:59.983Z,8.40
2023-02-13T05:34:01.884Z,8.40
2023-02-13T05:36:03.658Z,8.40
2023-02-13T05:38:05.310Z,8.40
2023-02-13T05:40:07.252Z,8.40
2023-02-13T05:42:10.509Z,8.40
2023-02-13T05:44:12.631Z,8.40
2023-02-13T05:46:14.287Z,8.40
2023-02-13T05:48:15.942Z,8.40
2023-02-13T05:50:17.551Z,8.40
2023-02-13T05:52:19.407Z,8.40
2023-02-13T05:54:21.059Z,8.40
2023-02-13T05:56:22.964Z,8.30
2023-02-13T05:58:24.623Z,8.40
2023-02-13T06:00:26.390Z,8.40
2023-02-13T06:02:28.063Z,8.40
2023-02-13T06:04:29.726Z,8.40
2023-02-13T06:06:31.474Z,8.40
2023-02-13T06:08:33.082Z,8.40
2023-02-13T06:10:34.751Z,8.40
2023-02-13T06:12:36.571Z,8.30
2023-02-13T06:14:38.255Z,8.40
2023-02-13T06:16:40.129Z,8.30
2023-02-13T06:18:41.823Z,8.30
2023-02-13T06:20:43.491Z,8.30
2023-02-13T06:22:47.674Z,8.40
2023-02-13T06:24:49.401Z,8.40
2023-02-13T06:26:51.103Z,8.30
2023-02-13T06:28:52.799Z,8.30
2023-02-13T06:30:54.505Z,8.30
2023-02-13T06:32:56.351Z,8.30
2023-02-13T06:34:57.991Z,8.30
2023-02-13T06:36:59.972Z,8.30
2023-02-13T06:39:01.770Z,8.30
2023-02-13T06:41:04.107Z,8.30
2023-02-13T06:43:05.772Z,8.30
2023-02-13T06:45:07.592Z,8.30
2023-02-13T06:47:09.223Z,8.20
2023-02-13T06:49:10.898Z,8.30
2023-02-13T06:51:12.521Z,8.20
2023-02-13T06:53:14.191Z,8.30
2023-02-13T06:55:16.502Z,8.30
2023-02-13T06:57:18.126Z,8.30
2023-02-13T06:59:19.733Z,8.20
2023-02-13T07:01:21.584Z,8.30
2023-02-13T07:03:23.340Z,8.20
2023-02-13T07:05:24.968Z,8.30
2023-02-13T07:07:26.583Z,8.30
2023-02-13T07:09:28.276Z,8.20
2023-02-13T07:11:30.253Z,8.20
2023-02-13T07:13:31.863Z,8.20
2023-02-13T07:15:34.325Z,8.30
2023-02-13T07:17:36.071Z,8.20
2023-02-13T07:19:37.727Z,8.20
2023-02-13T07:21:39.580Z,8.20
2023-02-13T07:23:41.266Z,8.20
2023-02-13T07:25:42.932Z,8.20
2023-02-13T07:27:44.579Z,8.20
2023-02-13T07:29:46.226Z,8.20
2023-02-13T07:31:47.912Z,8.20
2023-02-13T07:33:49.713Z,8.20
2023-02-13T07:35:52.010Z,8.20
2023-02-13T07:37:54.839Z,8.20
2023-02-13T07:39:56.528Z,8.20
2023-02-13T07:41:58.200Z,8.20
2023-02-13T07:44:01.260Z,8.20
2023-02-13T07:46:03.407Z,8.20
2023-02-13T07:48:05.097Z,8.20
2023-02-13T07:50:07.153Z,8.20
2023-02-13T07:52:08.811Z,8.20
2023-02-13T07:54:10.461Z,8.20
2023-02-13T07:56:12.291Z,8.20
2023-02-13T07:58:13.910Z,8.20
2023-02-13T08:00:15.857Z,8.20
2023-02-13T08:02:17.521Z,8.20
2023-02-13T08:04:19.196Z,8.20
2023-02-13T08:06:21.100Z,8.20
2023-02-13T08:08:22.759Z,8.20
2023-02-13T08:10:43.134Z,8.20
2023-02-13T08:12:45.316Z,8.30
2023-02-13T08:14:46.958Z,8.30
2023-02-13T08:16:48.932Z,8.30
2023-02-13T08:18:50.683Z,8.30
2023-02-13T08:20:52.347Z,8.30
2023-02-13T08:22:54.007Z,8.30
2023-02-13T08:24:55.703Z,8.40
2023-02-13T08:26:57.401Z,8.40
2023-02-13T08:28:59.370Z,8.40
2023-02-13T08:31:01.171Z,8.40
2023-02-13T08:33:02.859Z,8.40
2023-02-13T08:35:04.685Z,8.40
2023-02-13T08:37:06.396Z,8.50
2023-02-13T08:39:09.392Z,8.50
2023-02-13T08:41:11.103Z,8.60
2023-02-13T08:43:12.799Z,8.60
2023-02-13T08:45:14.492Z,8.60
2023-02-13T08:47:16.167Z,8.60
2023-02-13T08:49:18.134Z,8.60
2023-02-13T08:51:19.850Z,8.70
2023-02-13T08:53:21.542Z,8.70
2023-02-13T08:55:23.171Z,8.70
2023-02-13T08:57:24.874Z,8.80
2023-02-13T08:59:26.524Z,8.80
2023-02-13T09:01:28.267Z,8.80
2023-02-13T09:03:30.290Z,8.90
2023-02-13T09:05:32.441Z,8.90
2023-02-13T09:07:34.212Z,9.00
2023-02-13T09:09:35.867Z,9.00
2023-02-13T09:11:37.631Z,9.00
2023-02-13T09:13:39.374Z,9.10
2023-02-13T09:15:41.707Z,9.10
2023-02-13T09:17:43.381Z,9.10
2023-02-13T09:19:46.682Z,9.20
2023-02-13T09:21:48.382Z,9.20
2023-02-13T09:23:51.437Z,9.30
2023-02-13T09:25:53.411Z,9.30
2023-02-13T09:27:55.076Z,9.40
2023-02-13T09:29:56.831Z,9.40
2023-02-13T09:31:58.637Z,9.50
2023-02-13T09:34:00.353Z,9.50
2023-02-13T09:36:09.141Z,9.60
2023-02-13T09:38:11.252Z,9.60
2023-02-13T09:40:28.423Z,9.60
2023-02-13T09:42:31.572Z,9.70
2023-02-13T09:44:39.413Z,9.70
2023-02-13T09:46:44.028Z,9.80
2023-02-13T09:48:47.929Z,9.80
2023-02-13T09:50:49.617Z,9.90
2023-02-13T09:52:52.681Z,9.90
2023-02-13T09:54:55.017Z,10.00
2023-02-13T09:57:01.166Z,10.00
2023-02-13T09:59:05.494Z,10.10
2023-02-13T10:01:16.526Z,10.10
2023-02-13T10:03:38.476Z,10.20
2023-02-13T10:05:46.645Z,10.20
2023-02-13T10:08:07.241Z,10.30
2023-02-13T10:10:34.049Z,10.40
2023-02-13T10:12:44.411Z,10.50
2023-02-13T10:15:04.839Z,10.50
2023-02-13T10:17:10.424Z,10.70
2023-02-13T10:19:30.293Z,10.70
2023-02-13T10:21:38.972Z,10.80
2023-02-13T10:23:43.589Z,10.90
2023-02-13T10:26:03.914Z,11.00
2023-02-13T10:28:16.424Z,11.00
2023-02-13T10:30:24.333Z,11.10
2023-02-13T10:32:29.997Z,11.20
2023-02-13T10:34:34.794Z,11.30
2023-02-13T10:36:37.956Z,11.40
2023-02-13T10:38:52.196Z,11.50
2023-02-13T10:41:12.320Z,11.50
2023-02-13T10:43:18.669Z,11.60
2023-02-13T10:45:39.172Z,11.70
2023-02-13T10:47:50.602Z,11.80
2023-02-13T10:50:03.394Z,11.90
2023-02-13T10:52:14.103Z,12.00
2023-02-13T10:54:20.779Z,12.10
2023-02-13T10:56:27.342Z,12.20
2023-02-13T10:58:28.980Z,12.30
2023-02-13T11:00:31.361Z,12.40
2023-02-13T11:02:34.708Z,12.50
2023-02-13T11:04:36.383Z,12.60
2023-02-13T11:06:42.385Z,12.60
2023-02-13T11:08:47.731Z,12.70
2023-02-13T11:10:49.793Z,12.80
2023-02-13T11:12:52.122Z,12.90
2023-02-13T11:14:57.884Z,13.00
2023-02-13T11:17:01.172Z,13.10
2023-02-13T11:19:02.916Z,13.20
2023-02-13T11:21:08.843Z,13.30
2023-02-13T11:23:17.423Z,13.40
2023-02-13T11:25:21.383Z,13.50
2023-02-13T11:27:28.161Z,13.60
2023-02-13T11:29:31.207Z,13.70
2023-02-13T11:31:34.690Z,13.80
2023-02-13T11:33:36.821Z,13.90
2023-02-13T11:35:38.623Z,14.00
2023-02-13T11:37:40.528Z,14.10
2023-02-13T11:39:43.222Z,14.20
2023-02-13T11:41:45.593Z,14.30
2023-02-13T11:43:48.420Z,14.40
2023-02-13T11:46:01.214Z,14.50
2023-02-13T11:48:08.908Z,14.60
2023-02-13T11:50:22.579Z,14.60
2023-02-13T11:52:50.702Z,14.70
2023-02-13T11:54:57.109Z,14.80
2023-02-13T11:57:17.310Z,14.90
2023-02-13T11:59:21.984Z,15.00
2023-02-13T12:01:26.668Z,15.00
2023-02-13T12:03:29.848Z,15.10
2023-02-13T12:05:31.605Z,15.10
2023-02-13T12:07:33.419Z,15.20
2023-02-13T12:09:35.673Z,15.20
2023-02-13T12:11:48.705Z,15.30
2023-02-13T12:13:51.528Z,15.40
2023-02-13T12:15:59.545Z,15.40
2023-02-13T12:18:19.900Z,15.50
2023-02-13T12:20:21.545Z,15.60
2023-02-13T12:22:23.326Z,15.70
2023-02-13T12:24:43.886Z,15.70
2023-02-13T12:26:49.277Z,15.80
2023-02-13T12:29:09.860Z,15.80
2023-02-13T12:31:17.966Z,15.90
2023-02-13T12:33:34.980Z,15.90
2023-02-13T12:35:49.003Z,16.00
2023-02-13T12:37:50.590Z,16.00
2023-02-13T12:40:15.719Z,16.10
2023-02-13T12:42:36.320Z,16.10
2023-02-13T12:44:56.632Z,16.20
2023-02-13T12:47:10.558Z,16.20
2023-02-13T12:49:24.369Z,16.30
2023-02-13T12:51:35.017Z,16.40
2023-02-13T12:53:46.380Z,16.40
2023-02-13T12:56:01.309Z,16.40
2023-02-13T12:58:15.894Z,16.50
2023-02-13T13:00:18.367Z,16.50
2023-02-13T13:02:40.377Z,16.60
2023-02-13T13:04:47.991Z,16.60
2023-02-13T13:07:17.757Z,16.70
2023-02-13T13:09:28.575Z,16.80
2023-02-13T13:11:36.021Z,16.80
2023-02-13T13:13:56.465Z,16.80
2023-02-13T13:16:07.526Z,16.90
2023-02-13T13:18:09.301Z,16.90
2023-02-13T13:20:14.311Z,16.90
2023-02-13T13:22:25.086Z,16.90
2023-02-13T13:24:26.797Z,16.90
2023-02-13T13:26:32.011Z,17.00
2023-02-13T13:28:41.637Z,17.00
2023-02-13T13:30:43.742Z,17.00
2023-02-13T13:32:45.917Z,17.00
2023-02-13T13:34:50.787Z,17.10
2023-02-13T13:36:55.373Z,17.10
2023-02-13T13:39:01.845Z,17.10
2023-02-13T13:41:18.750Z,17.10
2023-02-13T13:43:26.601Z,17.10
2023-02-13T13:45:31.187Z,17.20
2023-02-13T13:47:48.167Z,17.10
2023-02-13T13:49:57.230Z,17.10
2023-02-13T13:52:19.264Z,17.20
2023-02-13T13:54:22.991Z,17.20
2023-02-13T13:56:24.785Z,17.20
2023-02-13T14:06:48.114Z,17.40
2023-02-13T14:09:34.674Z,17.40
2023-02-13T14:14:45.300Z,17.60
2023-02-13T14:16:57.256Z,17.60
2023-02-13T14:24:33.744Z,17.80
2023-02-13T14:26:40.208Z,17.90
2023-02-13T14:31:26.586Z,17.90
2023-02-13T14:33:37.363Z,18.00
2023-02-13T14:35:46.885Z,18.00
2023-02-13T14:38:06.062Z,18.10
2023-02-13T14:40:18.101Z,18.10
2023-02-13T14:42:29.037Z,18.10
2023-02-13T14:44:55.775Z,18.20
2023-02-13T14:47:04.207Z,18.20
2023-02-13T14:49:27.213Z,18.20
2023-02-13T14:51:35.189Z,18.30
2023-02-13T14:54:06.507Z,18.30
2023-02-13T14:56:34.368Z,18.30
2023-02-13T14:59:11.097Z,18.40
2023-02-13T15:01:18.424Z,18.40
2023-02-13T15:03:58.455Z,18.40
2023-02-13T15:06:03.253Z,18.40
2023-02-13T15:08:20.133Z,18.40
2023-02-13T15:16:16.201Z,18.50
2023-02-13T15:18:43.551Z,18.50
2023-02-13T15:21:07.983Z,18.50
2023-02-13T15:23:19.693Z,18.50
2023-02-13T15:25:40.661Z,18.50
2023-02-13T15:27:43.607Z,18.40
2023-02-13T15:30:04.271Z,18.30
2023-02-13T15:32:19.269Z,18.30
2023-02-13T15:34:21.130Z,18.20
2023-02-13T15:36:25.534Z,18.10
2023-02-13T15:38:27.458Z,18.00
2023-02-13T15:40:31.017Z,17.90
2023-02-13T15:42:32.719Z,17.80
2023-02-13T15:44:36.025Z,17.70
2023-02-13T15:46:38.724Z,17.60
2023-02-13T15:48:40.678Z,17.50
2023-02-13T15:50:42.549Z,17.40
2023-02-13T15:52:45.393Z,17.30
2023-02-13T15:54:56.386Z,17.30
2023-02-13T15:56:59.954Z,17.20
2023-02-13T15:59:03.475Z,17.10
2023-02-13T16:01:07.744Z,17.00
2023-02-13T16:03:14.986Z,16.90
2023-02-13T16:05:23.988Z,16.90
2023-02-13T16:07:51.054Z,16.80
2023-02-13T16:10:12.760Z,16.70
2023-02-13T16:12:22.931Z,16.60
2023-02-13T16:14:25.649Z,16.60
2023-02-13T16:16:28.595Z,16.50
2023-02-13T16:18:30.364Z,16.40
2023-02-13T16:20:33.315Z,16.30
2023-02-13T16:22:35.017Z,16.20
2023-02-13T16:24:37.045Z,16.20
2023-02-13T16:26:42.490Z,16.10
2023-02-13T16:28:46.332Z,16.00
2023-02-13T16:30:53.529Z,15.90
2023-02-13T16:33:14.214Z,15.90
2023-02-13T16:35:22.159Z,15.80
2023-02-13T16:37:28.363Z,15.70
2023-02-13T16:39:31.223Z,15.60
2023-02-13T16:41:33.470Z,15.50
2023-02-13T16:43:37.998Z,15.40
2023-02-13T16:45:39.682Z,15.40
2023-02-13T16:47:41.451Z,15.30
2023-02-13T16:49:43.206Z,15.20
2023-02-13T16:51:53.643Z,15.10
2023-02-13T16:53:59.322Z,15.10
2023-02-13T16:56:01.652Z,15.00
2023-02-13T16:58:05.223Z,14.90
2023-02-13T17:00:18.512Z,14.80
2023-02-13T17:02:20.231Z,14.80
2023-02-13T17:04:24.155Z,14.70
2023-02-13T17:06:25.910Z,14.70
2023-02-13T17:08:27.907Z,14.60
2023-02-13T17:10:33.962Z,14.50
2023-02-13T17:12:37.353Z,14.50
2023-02-13T17:14:39.143Z,14.40
2023-02-13T17:16:40.897Z,14.30
2023-02-13T17:18:42.704Z,14.30
2023-02-13T17:20:45.201Z,14.20
2023-02-13T17:22:48.349Z,14.10
2023-02-13T17:24:50.014Z,14.00
2023-02-13T17:26:51.747Z,14.00
2023-02-13T17:28:53.453Z,14.00
2023-02-13T17:30:56.773Z,13.90
2023-02-13T17:33:18.897Z,13.80
2023-02-13T17:35:20.652Z,13.80
2023-02-13T17:37:24.110Z,13.70
2023-02-13T17:39:25.878Z,13.70
2023-02-13T17:41:30.524Z,13.60
2023-02-13T17:43:32.415Z,13.60
2023-02-13T17:45:35.208Z,13.50
2023-02-13T17:47:36.991Z,13.40
2023-02-13T17:49:38.831Z,13.40
2023-02-13T17:51:41.103Z,13.40
2023-02-13T17:53:42.883Z,13.30
2023-02-13T17:55:44.641Z,13.30
2023-02-13T17:57:46.927Z,13.20
2023-02-13T17:59:48.708Z,13.20
2023-02-13T18:01:51.114Z,13.10
2023-02-13T18:03:52.847Z,13.10
2023-02-13T18:05:55.044Z,13.00
2023-02-13T18:07:56.789Z,12.90
2023-02-13T18:09:58.638Z,12.90
2023-02-13T18:12:05.703Z,12.90
2023-02-13T18:14:07.770Z,12.80
2023-02-13T18:16:10.046Z,12.80
2023-02-13T18:18:13.340Z,12.70
2023-02-13T18:20:16.770Z,12.70
2023-02-13T18:22:20.760Z,12.60
2023-02-13T18:24:22.909Z,12.60
2023-02-13T18:26:27.184Z,12.50
2023-02-13T18:28:34.810Z,12.50
2023-02-13T18:30:36.967Z,12.50
2023-02-13T18:32:40.746Z,12.40
2023-02-13T18:34:46.495Z,12.40
2023-02-13T18:36:50.196Z,12.40
2023-02-13T18:38:52.696Z,12.30
2023-02-13T18:40:54.641Z,12.30
2023-02-13T18:42:56.628Z,12.20
2023-02-13T18:44:58.417Z,12.20
2023-02-13T18:47:00.339Z,12.20
2023-02-13T18:49:02.501Z,12.10
2023-02-13T18:51:04.399Z,12.10
2023-02-13T18:53:06.430Z,12.00
2023-02-13T18:55:09.532Z,12.00
2023-02-13T18:57:11.525Z,12.00
2023-02-13T18:59:13.464Z,11.90
2023-02-13T19:01:19.426Z,11.90
2023-02-13T19:03:21.332Z,11.90
2023-02-13T19:05:23.460Z,11.80
2023-02-13T19:07:25.553Z,11.80
2023-02-13T19:09:27.324Z,11.70
2023-02-13T19:11:30.907Z,11.70
2023-02-13T19:13:32.825Z,11.70
2023-02-13T19:15:35.872Z,11.60
2023-02-13T19:17:37.812Z,11.60
2023-02-13T19:19:39.616Z,11.60
2023-02-13T19:21:44.879Z,11.50
2023-02-13T19:23:47.553Z,11.50
2023-02-13T19:25:49.311Z,11.50
2023-02-13T19:27:51.150Z,11.40
2023-02-13T19:29:52.937Z,11.40
2023-02-13T19:31:54.818Z,11.40
2023-02-13T19:33:56.646Z,11.40
2023-02-13T19:35:59.523Z,11.30
2023-02-13T19:38:01.346Z,11.30
2023-02-13T19:40:03.290Z,11.30
2023-02-13T19:42:05.180Z,11.30
2023-02-13T19:44:08.343Z,11.20
2023-02-13T19:46:13.041Z,11.20
2023-02-13T19:48:15.349Z,11.20
2023-02-13T19:50:18.098Z,11.10
2023-02-13T19:52:21.879Z,11.10
2023-02-13T19:54:23.622Z,11.10
2023-02-13T19:56:27.284Z,11.10
2023-02-13T19:58:29.180Z,11.00
2023-02-13T20:00:31.662Z,11.00
2023-02-13T20:02:33.653Z,11.00
2023-02-13T20:04:36.827Z,10.90
2023-02-13T20:06:39.018Z,10.90
2023-02-13T20:08:42.880Z,10.90
2023-02-13T20:10:45.524Z,10.90
2023-02-13T20:12:53.678Z,10.80
2023-02-13T20:14:55.671Z,10.80
2023-02-13T20:16:58.297Z,10.80
2023-02-13T20:19:06.517Z,10.70
2023-02-13T20:21:10.932Z,10.70
2023-02-13T20:23:12.753Z,10.70
2023-02-13T20:25:18.663Z,10.70
2023-02-13T20:27:20.353Z,10.60
2023-02-13T20:29:22.229Z,10.60
2023-02-13T20:31:24.409Z,10.60
2023-02-13T20:33:26.874Z,10.60
2023-02-13T20:35:28.628Z,10.60
2023-02-13T20:37:30.744Z,10.50
2023-02-13T20:39:32.498Z,10.50
2023-02-13T20:41:36.009Z,10.50
2023-02-13T20:43:38.025Z,10.50
2023-02-13T20:45:39.961Z,10.40
2023-02-13T20:47:42.918Z,10.40
2023-02-13T20:49:44.807Z,10.40
2023-02-13T20:51:46.556Z,10.30
2023-02-13T20:53:48.379Z,10.30
2023-02-13T20:55:50.286Z,10.30
2023-02-13T20:57:52.330Z,10.30
2023-02-13T20:59:54.116Z,10.20
2023-02-13T21:01:55.967Z,10.20
2023-02-13T21:03:58.027Z,10.20
2023-02-13T21:06:00.216Z,10.20
2023-02-13T21:08:02.379Z,10.10
2023-02-13T21:10:05.734Z,10.10
2023-02-13T21:12:07.535Z,10.10
2023-02-13T21:14:13.433Z,10.10
2023-02-13T21:16:17.012Z,10.00
2023-02-13T21:18:21.303Z,10.00
2023-02-13T21:20:23.513Z,10.00
2023-02-13T21:22:25.266Z,10.00
2023-02-13T21:24:26.996Z,10.00
2023-02-13T21:26:29.046Z,10.00
2023-02-13T21:28:31.203Z,10.00
2023-02-13T21:30:33.024Z,9.90
2023-02-13T21:32:36.267Z,9.90
2023-02-13T21:34:38.109Z,9.90
2023-02-13T21:36:40.101Z,9.90
2023-02-13T21:38:41.993Z,9.80
2023-02-13T21:40:43.722Z,9.80
2023-02-13T21:42:45.816Z,9.80
2023-02-13T21:44:48.864Z,9.80
2023-02-13T21:46:51.806Z,9.70
2023-02-13T21:48:55.318Z,9.70
2023-02-13T21:50:57.795Z,9.70
2023-02-13T21:53:00.984Z,9.70
2023-02-13T21:55:04.734Z,9.70
2023-02-13T21:57:07.075Z,9.70
2023-02-13T21:59:10.334Z,9.60
2023-02-13T22:01:26.599Z,9.60
2023-02-13T22:03:28.933Z,9.60
2023-02-13T22:05:30.914Z,9.60
2023-02-13T22:07:52.811Z,9.50
2023-02-13T22:09:55.173Z,9.50
2023-02-13T22:11:57.222Z,9.50
2023-02-13T22:14:03.021Z,9.50
2023-02-13T22:16:09.147Z,9.50
2023-02-13T22:18:10.989Z,9.40
2023-02-13T22:20:13.151Z,9.40
2023-02-13T22:22:15.955Z,9.40
2023-02-13T22:24:18.421Z,9.30
2023-02-13T22:26:20.365Z,9.30
2023-02-13T22:28:22.324Z,9.30
2023-02-13T22:30:24.346Z,9.30
2023-02-13T22:32:26.379Z,9.30
2023-02-13T22:34:28.213Z,9.30
2023-02-13T22:36:29.906Z,9.20
2023-02-13T22:38:32.526Z,9.20
2023-02-13T22:40:35.216Z,9.20
2023-02-13T22:42:36.883Z,9.20
2023-02-13T22:44:38.534Z,9.10
2023-02-13T22:46:40.387Z,9.10
2023-02-13T22:48:44.206Z,9.10
2023-02-13T22:50:45.849Z,9.00
2023-02-13T22:52:47.867Z,9.00
2023-02-13T22:54:49.539Z,9.00
2023-02-13T22:56:51.174Z,8.90
2023-02-13T22:58:52.984Z,8.90
2023-02-13T23:00:54.850Z,8.90
2023-02-13T23:02:56.534Z,8.90
2023-02-13T23:04:58.254Z,8.90
2023-02-13T23:06:59.921Z,8.90
2023-02-13T23:09:01.631Z,8.80
2023-02-13T23:11:26.371Z,8.90
2023-02-13T23:13:28.141Z,8.80
2023-02-13T23:15:31.948Z,8.80
2023-02-13T23:17:52.381Z,8.80
2023-02-13T23:19:54.058Z,8.80
2023-02-13T23:21:55.764Z,8.70
2023-02-13T23:23:57.533Z,8.70
2023-02-13T23:26:02.849Z,8.70
2023-02-13T23:28:05.168Z,8.70
2023-02-13T23:30:07.411Z,8.60
2023-02-13T23:32:09.230Z,8.60
2023-02-13T23:34:11.210Z,8.60
2023-02-13T23:36:12.955Z,8.60
2023-02-13T23:38:14.615Z,8.60
2023-02-13T23:40:16.543Z,8.60
2023-02-13T23:42:18.194Z,8.50
2023-02-13T23:44:19.965Z,8.50
2023-02-13T23:46:21.656Z,8.50
2023-02-13T23:48:23.370Z,8.50
2023-02-13T23:50:25.009Z,8.50
2023-02-13T23:52:27.005Z,8.50
2023-02-13T23:54:28.630Z,8.40
2023-02-13T23:56:30.543Z,8.40
2023-02-13T23:58:32.261Z,8.40
